Time;durP1;ratioP1;P1;durP2;ratioP2;P2;SDS_P1;SDS_P2;PMS_P1;PMS_P2;Temp;Humidity;BMP_temperature;BMP_pressure;BME280_temperature;BME280_humidity;BME280_pressure;Samples;Min_cycle;Max_cycle;Signal;HPM_P1;HPM_P2
2022/01/11 00:00:47;;;;;;;155.53;37.33;;;;;;;;;;5044400;28;20232;-66
2022/01/11 00:03:15;;;;;;;234.73;42.00;;;;;;;;;;5042036;28;20273;-67
2022/01/11 00:08:31;;;;;;;126.47;33.57;;;;;;;;;;5034937;28;20681;-66
2022/01/11 00:11:03;;;;;;;223.17;36.33;;;;;;;;;;5044421;28;20347;-68
2022/01/11 00:13:31;;;;;;;277.77;40.40;;;;;;;;;;5039945;28;20197;-67
2022/01/11 00:15:56;;;;;;;126.03;28.80;;;;;;;;;;5044107;28;20177;-67
2022/01/11 00:18:22;;;;;;;165.37;33.00;;;;;;;;;;5047599;28;20193;-68
2022/01/11 00:20:48;;;;;;;141.30;32.07;;;;;;;;;;5045414;28;20276;-67
2022/01/11 00:25:41;;;;;;;112.77;29.03;;;;;;;;;;5044548;28;20178;-67
2022/01/11 00:28:08;;;;;;;148.33;31.53;;;;;;;;;;5045236;28;20257;-67
2022/01/11 00:30:36;;;;;;;267.80;38.93;;;;;;;;;;5045600;28;20208;-67
2022/01/11 00:33:07;;;;;;;136.90;30.40;;;;;;;;;;5043994;28;20666;-68
2022/01/11 00:35:48;;;;;;;103.83;29.83;;;;;;;;;;5044280;28;20652;-68
2022/01/11 00:38:18;;;;;;;110.03;30.43;;;;;;;;;;5038409;28;20196;-68
2022/01/11 00:40:47;;;;;;;110.00;30.73;;;;;;;;;;5039717;28;20231;-68
2022/01/11 00:43:15;;;;;;;161.07;34.17;;;;;;;;;;5041212;28;20196;-68
2022/01/11 00:45:41;;;;;;;96.87;31.27;;;;;;;;;;5041985;28;20628;-68
2022/01/11 00:48:06;;;;;;;165.47;35.17;;;;;;;;;;5046977;28;20185;-68
2022/01/11 00:50:33;;;;;;;115.67;31.93;;;;;;;;;;5045812;28;20556;-66
2022/01/11 00:52:59;;;;;;;77.90;29.00;;;;;;;;;;5048390;28;20205;-67
2022/01/11 00:55:24;;;;;;;95.77;30.43;;;;;;;;;;5042637;28;20615;-67
2022/01/11 00:57:50;;;;;;;105.13;30.13;;;;;;;;;;5047813;28;20269;-67
2022/01/11 01:00:16;;;;;;;107.20;28.87;;;;;;;;;;5043064;28;20317;-68
2022/01/11 01:02:42;;;;;;;118.30;30.70;;;;;;;;;;5046554;28;20328;-68
2022/01/11 01:05:09;;;;;;;94.93;32.30;;;;;;;;;;5044041;28;20239;-68
2022/01/11 01:07:34;;;;;;;95.90;31.13;;;;;;;;;;5036582;28;20221;-68
2022/01/11 01:10:04;;;;;;;73.90;30.13;;;;;;;;;;5045757;28;20220;-67
2022/01/11 01:12:30;;;;;;;102.00;30.33;;;;;;;;;;5046027;28;20189;-67
2022/01/11 01:14:56;;;;;;;76.87;30.30;;;;;;;;;;5044849;28;20609;-67
2022/01/11 01:17:21;;;;;;;64.23;28.60;;;;;;;;;;5045847;28;20687;-67
2022/01/11 01:19:46;;;;;;;65.70;27.87;;;;;;;;;;5041376;28;20258;-67
2022/01/11 01:22:12;;;;;;;79.20;29.70;;;;;;;;;;5038709;28;20790;-67
2022/01/11 01:24:37;;;;;;;82.80;28.83;;;;;;;;;;5043068;28;20201;-67
2022/01/11 01:27:03;;;;;;;75.10;30.03;;;;;;;;;;5045245;28;20624;-67
2022/01/11 01:29:28;;;;;;;70.03;25.87;;;;;;;;;;5043615;28;20221;-67
2022/01/11 01:31:55;;;;;;;67.23;26.70;;;;;;;;;;5040892;28;20219;-67
2022/01/11 01:34:21;;;;;;;105.33;30.60;;;;;;;;;;5045541;28;20178;-67
2022/01/11 01:36:46;;;;;;;79.93;30.07;;;;;;;;;;5037759;28;20193;-67
2022/01/11 01:39:12;;;;;;;84.33;27.80;;;;;;;;;;5042414;28;20308;-67
2022/01/11 01:41:42;;;;;;;83.93;29.63;;;;;;;;;;5042594;28;20185;-67
2022/01/11 01:44:08;;;;;;;85.50;28.93;;;;;;;;;;5042939;28;20202;-67
2022/01/11 01:46:34;;;;;;;103.30;27.53;;;;;;;;;;5043317;28;20315;-67
2022/01/11 01:49:01;;;;;;;140.77;28.93;;;;;;;;;;5044216;28;20652;-67
2022/01/11 01:51:27;;;;;;;96.63;25.30;;;;;;;;;;5040073;28;20193;-67
2022/01/11 01:53:52;;;;;;;67.00;27.17;;;;;;;;;;5041429;28;20217;-67
2022/01/11 01:56:25;;;;;;;64.50;27.23;;;;;;;;;;5045017;28;20174;-67
2022/01/11 01:58:54;;;;;;;68.53;27.93;;;;;;;;;;5044043;28;20200;-68
2022/01/11 02:01:21;;;;;;;96.97;29.60;;;;;;;;;;5044570;28;20221;-68
2022/01/11 02:03:46;;;;;;;116.27;29.43;;;;;;;;;;5043604;28;20217;-67
2022/01/11 02:06:15;;;;;;;86.67;28.17;;;;;;;;;;5043725;28;20267;-67
2022/01/11 02:08:42;;;;;;;103.03;29.20;;;;;;;;;;5043053;28;20197;-67
2022/01/11 02:11:08;;;;;;;74.93;27.00;;;;;;;;;;5046680;28;20177;-67
2022/01/11 02:13:34;;;;;;;145.13;32.57;;;;;;;;;;5044170;28;20208;-67
2022/01/11 02:15:59;;;;;;;89.50;28.40;;;;;;;;;;5044758;28;20182;-67
2022/01/11 02:18:26;;;;;;;158.47;31.33;;;;;;;;;;5044351;28;20189;-67
2022/01/11 02:20:56;;;;;;;127.57;29.33;;;;;;;;;;5040844;28;20504;-67
2022/01/11 02:23:22;;;;;;;97.77;30.47;;;;;;;;;;5040508;28;20190;-67
2022/01/11 02:25:49;;;;;;;88.60;29.50;;;;;;;;;;5041611;28;20178;-67
2022/01/11 02:28:18;;;;;;;120.43;29.80;;;;;;;;;;5040736;28;20186;-67
2022/01/11 02:30:44;;;;;;;122.93;30.57;;;;;;;;;;5044828;28;20228;-67
2022/01/11 02:33:22;;;;;;;98.47;29.80;;;;;;;;;;5041936;28;20296;-67
2022/01/11 02:35:49;;;;;;;133.87;30.83;;;;;;;;;;5036163;28;20170;-67
2022/01/11 02:38:15;;;;;;;107.03;30.40;;;;;;;;;;5044511;28;20637;-67
2022/01/11 02:40:40;;;;;;;122.97;30.33;;;;;;;;;;5060324;28;20169;-67
2022/01/11 02:43:06;;;;;;;140.27;31.73;;;;;;;;;;5045099;28;20239;-67
2022/01/11 02:45:31;;;;;;;162.57;34.03;;;;;;;;;;5041151;28;20256;-67
2022/01/11 02:47:56;;;;;;;193.37;33.60;;;;;;;;;;5043532;28;20197;-68
2022/01/11 02:50:22;;;;;;;138.93;29.40;;;;;;;;;;5041078;28;20284;-67
2022/01/11 02:52:47;;;;;;;108.07;28.37;;;;;;;;;;5044214;28;20247;-67
2022/01/11 02:55:14;;;;;;;96.00;28.90;;;;;;;;;;5042016;28;20177;-68
2022/01/11 02:57:40;;;;;;;78.30;28.13;;;;;;;;;;5043796;28;20188;-68
2022/01/11 03:00:09;;;;;;;96.97;29.67;;;;;;;;;;5042581;28;20312;-67
2022/01/11 03:02:34;;;;;;;81.03;28.90;;;;;;;;;;5040419;28;20605;-68
2022/01/11 03:05:00;;;;;;;95.93;31.40;;;;;;;;;;5040620;28;20216;-67
2022/01/11 03:07:25;;;;;;;111.83;33.77;;;;;;;;;;5042468;28;20181;-67
2022/01/11 03:10:03;;;;;;;128.37;32.77;;;;;;;;;;5043171;28;20174;-68
2022/01/11 03:12:29;;;;;;;108.37;31.23;;;;;;;;;;5044458;28;20189;-69
2022/01/11 03:14:55;;;;;;;102.53;30.83;;;;;;;;;;5039033;28;20537;-68
2022/01/11 03:17:20;;;;;;;94.70;30.83;;;;;;;;;;5043947;28;20207;-68
2022/01/11 03:19:47;;;;;;;152.77;34.73;;;;;;;;;;5042217;28;20536;-68
2022/01/11 03:22:12;;;;;;;79.37;30.00;;;;;;;;;;5041176;28;20197;-68
2022/01/11 03:24:38;;;;;;;112.30;33.67;;;;;;;;;;5043450;28;20234;-69
2022/01/11 03:27:06;;;;;;;119.40;35.37;;;;;;;;;;5039390;28;20568;-67
2022/01/11 03:29:37;;;;;;;135.57;34.20;;;;;;;;;;5041323;28;20177;-68
2022/01/11 03:32:04;;;;;;;84.90;30.43;;;;;;;;;;5033346;28;20304;-68
2022/01/11 03:34:29;;;;;;;148.13;33.80;;;;;;;;;;5041331;28;20693;-68
2022/01/11 03:36:55;;;;;;;153.07;34.77;;;;;;;;;;5045335;28;20190;-68
2022/01/11 03:39:20;;;;;;;153.50;33.20;;;;;;;;;;5040424;28;20185;-68
2022/01/11 03:41:45;;;;;;;167.30;34.70;;;;;;;;;;5047301;28;20260;-68
2022/01/11 03:44:11;;;;;;;146.43;35.20;;;;;;;;;;5041623;28;20212;-68
2022/01/11 03:46:36;;;;;;;171.93;35.33;;;;;;;;;;5034560;28;20446;-68
2022/01/11 03:49:01;;;;;;;132.87;34.53;;;;;;;;;;5038329;28;20182;-68
2022/01/11 03:51:27;;;;;;;142.97;35.90;;;;;;;;;;5040280;28;20190;-68
2022/01/11 03:54:00;;;;;;;132.33;35.63;;;;;;;;;;5044150;28;20213;-68
2022/01/11 03:56:26;;;;;;;123.17;33.83;;;;;;;;;;5042536;28;20185;-68
2022/01/11 03:58:52;;;;;;;153.87;34.03;;;;;;;;;;5042833;28;20243;-68
2022/01/11 04:01:18;;;;;;;159.07;34.80;;;;;;;;;;5040800;28;20283;-68
2022/01/11 04:03:44;;;;;;;156.10;37.37;;;;;;;;;;5039517;28;20500;-68
2022/01/11 04:06:10;;;;;;;145.77;35.60;;;;;;;;;;5036720;28;20181;-68
2022/01/11 04:08:35;;;;;;;140.33;35.90;;;;;;;;;;5043239;28;20241;-68
2022/01/11 04:11:00;;;;;;;161.93;36.43;;;;;;;;;;5044033;28;20201;-68
2022/01/11 04:13:26;;;;;;;179.77;37.80;;;;;;;;;;5043084;28;20174;-67
2022/01/11 04:15:52;;;;;;;214.87;40.63;;;;;;;;;;5036300;28;20268;-67
2022/01/11 04:18:17;;;;;;;186.60;38.63;;;;;;;;;;5042452;28;20353;-68
2022/01/11 04:20:42;;;;;;;189.00;39.23;;;;;;;;;;5044089;28;20199;-68
2022/01/11 04:23:11;;;;;;;187.23;38.97;;;;;;;;;;5046464;28;20232;-68
2022/01/11 04:25:37;;;;;;;153.80;37.07;;;;;;;;;;5042449;28;20307;-68
2022/01/11 04:28:03;;;;;;;214.80;41.83;;;;;;;;;;5044535;28;20298;-68
2022/01/11 04:30:29;;;;;;;174.63;37.07;;;;;;;;;;5045261;28;20566;-68
2022/01/11 04:32:54;;;;;;;126.63;36.60;;;;;;;;;;5042598;28;20221;-68
2022/01/11 04:35:19;;;;;;;171.20;37.27;;;;;;;;;;5037774;28;20689;-68
2022/01/11 04:37:45;;;;;;;185.27;40.27;;;;;;;;;;5044788;28;20544;-67
2022/01/11 04:40:12;;;;;;;240.70;43.63;;;;;;;;;;5046332;28;20239;-67
2022/01/11 04:42:37;;;;;;;164.10;36.13;;;;;;;;;;5045538;28;20206;-67
2022/01/11 04:45:03;;;;;;;149.10;37.17;;;;;;;;;;5045170;28;20227;-67
2022/01/11 04:47:28;;;;;;;149.07;37.63;;;;;;;;;;5044941;28;20197;-67
2022/01/11 04:49:53;;;;;;;136.83;35.63;;;;;;;;;;5044748;28;20194;-67
2022/01/11 04:52:19;;;;;;;119.80;34.50;;;;;;;;;;5046502;28;20247;-67
2022/01/11 04:54:44;;;;;;;118.73;34.63;;;;;;;;;;5045138;28;20201;-67
2022/01/11 04:57:10;;;;;;;120.07;33.67;;;;;;;;;;5046978;28;20272;-68
2022/01/11 04:59:35;;;;;;;109.57;31.50;;;;;;;;;;5042668;28;20229;-67
2022/01/11 05:02:01;;;;;;;124.47;35.77;;;;;;;;;;5046886;28;20192;-67
2022/01/11 05:04:26;;;;;;;93.70;30.37;;;;;;;;;;5040637;28;20194;-67
2022/01/11 05:06:54;;;;;;;104.33;33.80;;;;;;;;;;5048224;28;20189;-67
2022/01/11 05:09:20;;;;;;;94.60;31.03;;;;;;;;;;5043509;28;20318;-67
2022/01/11 05:11:45;;;;;;;103.60;33.73;;;;;;;;;;5045784;28;20726;-67
2022/01/11 05:14:11;;;;;;;89.83;32.53;;;;;;;;;;5042194;28;20288;-68
2022/01/11 05:16:36;;;;;;;118.13;35.13;;;;;;;;;;5039604;28;20189;-68
2022/01/11 05:19:02;;;;;;;83.47;27.97;;;;;;;;;;5040940;28;20224;-68
2022/01/11 05:21:27;;;;;;;95.03;31.57;;;;;;;;;;5047245;28;20531;-67
2022/01/11 05:23:52;;;;;;;99.33;28.17;;;;;;;;;;5042887;28;20570;-67
2022/01/11 05:26:18;;;;;;;92.07;26.73;;;;;;;;;;5043808;28;20597;-68
2022/01/11 05:28:43;;;;;;;87.40;28.60;;;;;;;;;;5043164;28;20174;-67
2022/01/11 05:31:09;;;;;;;91.57;28.87;;;;;;;;;;5045895;28;20551;-67
2022/01/11 05:33:34;;;;;;;86.60;28.33;;;;;;;;;;5042157;28;20296;-67
2022/01/11 05:35:59;;;;;;;83.67;27.87;;;;;;;;;;5039837;28;20204;-68
2022/01/11 05:38:25;;;;;;;90.30;29.20;;;;;;;;;;5043619;28;20177;-68
2022/01/11 05:40:50;;;;;;;80.90;27.00;;;;;;;;;;5047146;28;20176;-68
2022/01/11 05:43:16;;;;;;;80.37;28.27;;;;;;;;;;5042638;28;20286;-68
2022/01/11 05:45:42;;;;;;;68.87;25.17;;;;;;;;;;5041468;28;20613;-68
2022/01/11 05:48:08;;;;;;;73.40;26.87;;;;;;;;;;5044973;28;20265;-68
2022/01/11 05:50:34;;;;;;;79.27;26.17;;;;;;;;;;5041300;28;20221;-68
2022/01/11 05:52:59;;;;;;;73.37;27.17;;;;;;;;;;5044928;28;20228;-68
2022/01/11 05:55:24;;;;;;;68.23;25.10;;;;;;;;;;5043262;28;20278;-68
2022/01/11 05:57:50;;;;;;;72.10;25.87;;;;;;;;;;5043540;28;20189;-68
2022/01/11 06:00:18;;;;;;;80.83;24.43;;;;;;;;;;5039443;28;20495;-68
2022/01/11 06:02:47;;;;;;;65.93;25.00;;;;;;;;;;5042052;28;20344;-68
2022/01/11 06:05:16;;;;;;;65.80;24.47;;;;;;;;;;5042803;28;20210;-68
2022/01/11 06:07:41;;;;;;;67.13;23.33;;;;;;;;;;5045652;28;20192;-68
2022/01/11 06:10:07;;;;;;;71.50;25.30;;;;;;;;;;5043169;28;20181;-68
2022/01/11 06:12:32;;;;;;;74.57;25.20;;;;;;;;;;5044562;28;20174;-68
2022/01/11 06:14:58;;;;;;;68.43;24.00;;;;;;;;;;5037514;28;20212;-68
2022/01/11 06:17:23;;;;;;;66.10;22.47;;;;;;;;;;5044651;28;20196;-68
2022/01/11 06:19:48;;;;;;;58.63;23.57;;;;;;;;;;5043046;28;20181;-68
2022/01/11 06:22:14;;;;;;;63.87;23.47;;;;;;;;;;5042769;28;20189;-68
2022/01/11 06:24:39;;;;;;;60.60;22.53;;;;;;;;;;5035005;28;20259;-68
2022/01/11 06:27:04;;;;;;;67.50;22.33;;;;;;;;;;5043551;28;20186;-68
2022/01/11 06:29:30;;;;;;;55.03;21.37;;;;;;;;;;5042075;28;20200;-68
2022/01/11 06:31:55;;;;;;;58.93;21.27;;;;;;;;;;5040732;28;20210;-68
2022/01/11 06:34:21;;;;;;;59.97;21.50;;;;;;;;;;5041790;28;20305;-68
2022/01/11 06:36:46;;;;;;;58.90;21.90;;;;;;;;;;5039400;28;20208;-68
2022/01/11 06:39:11;;;;;;;55.03;21.60;;;;;;;;;;5037708;28;20686;-68
2022/01/11 06:41:37;;;;;;;60.40;22.50;;;;;;;;;;5042013;28;20183;-68
2022/01/11 06:44:02;;;;;;;57.13;22.23;;;;;;;;;;5045594;28;20596;-68
2022/01/11 06:46:28;;;;;;;55.83;20.20;;;;;;;;;;5042170;28;20295;-68
2022/01/11 06:48:54;;;;;;;50.10;20.47;;;;;;;;;;5040726;28;20516;-68
2022/01/11 06:51:20;;;;;;;54.97;21.27;;;;;;;;;;5043919;28;20207;-68
2022/01/11 06:53:46;;;;;;;51.83;19.60;;;;;;;;;;5042949;28;20181;-68
2022/01/11 06:56:12;;;;;;;49.93;20.80;;;;;;;;;;5035859;28;20173;-68
2022/01/11 06:58:38;;;;;;;55.87;21.17;;;;;;;;;;5037102;28;20242;-68
2022/01/11 07:01:04;;;;;;;58.30;22.97;;;;;;;;;;5040410;28;20236;-68
2022/01/11 07:03:29;;;;;;;57.63;22.90;;;;;;;;;;5040500;28;20197;-68
2022/01/11 07:05:54;;;;;;;55.73;21.60;;;;;;;;;;5042011;28;20606;-68
2022/01/11 07:08:20;;;;;;;54.60;20.30;;;;;;;;;;5038838;28;20640;-68
2022/01/11 07:10:45;;;;;;;55.13;21.27;;;;;;;;;;5044119;28;20636;-68
2022/01/11 07:13:11;;;;;;;44.73;19.13;;;;;;;;;;5043960;28;20185;-68
2022/01/11 07:15:36;;;;;;;47.90;19.73;;;;;;;;;;5044521;28;20201;-68
2022/01/11 07:18:08;;;;;;;55.83;21.37;;;;;;;;;;5040909;28;20222;-68
2022/01/11 07:20:33;;;;;;;53.20;21.03;;;;;;;;;;5042105;28;21226;-68
2022/01/11 07:22:59;;;;;;;57.90;22.17;;;;;;;;;;5039449;28;20190;-67
2022/01/11 07:25:25;;;;;;;52.83;21.13;;;;;;;;;;5042736;28;20737;-69
2022/01/11 07:27:50;;;;;;;51.87;20.47;;;;;;;;;;5043121;28;20177;-67
2022/01/11 07:30:16;;;;;;;49.67;19.87;;;;;;;;;;5038487;28;20193;-67
2022/01/11 07:32:41;;;;;;;46.63;19.67;;;;;;;;;;5043010;28;20208;-67
2022/01/11 07:35:07;;;;;;;50.67;18.23;;;;;;;;;;5041568;28;20337;-67
2022/01/11 07:37:32;;;;;;;58.90;21.97;;;;;;;;;;5045083;28;20185;-67
2022/01/11 07:39:58;;;;;;;43.97;19.53;;;;;;;;;;5041308;28;20181;-66
2022/01/11 07:42:23;;;;;;;53.60;21.93;;;;;;;;;;5040280;28;20212;-68
2022/01/11 07:44:51;;;;;;;52.13;21.20;;;;;;;;;;5041167;28;20261;-67
2022/01/11 07:47:18;;;;;;;55.20;20.33;;;;;;;;;;5043142;28;20711;-67
2022/01/11 07:49:43;;;;;;;47.17;20.07;;;;;;;;;;5043064;28;20192;-67
2022/01/11 07:52:09;;;;;;;54.17;21.17;;;;;;;;;;5037090;28;20832;-67
2022/01/11 07:54:34;;;;;;;50.17;20.73;;;;;;;;;;5040810;28;20687;-67
2022/01/11 07:56:59;;;;;;;57.27;20.90;;;;;;;;;;5047924;28;20881;-68
2022/01/11 07:59:25;;;;;;;44.70;19.40;;;;;;;;;;5044872;28;20197;-67
2022/01/11 08:01:50;;;;;;;55.43;21.07;;;;;;;;;;5048013;28;20220;-68
2022/01/11 08:04:16;;;;;;;50.37;20.47;;;;;;;;;;5042665;28;20500;-67
2022/01/11 08:06:41;;;;;;;49.47;19.27;;;;;;;;;;5045923;28;20213;-67
2022/01/11 08:09:07;;;;;;;46.47;18.90;;;;;;;;;;5046722;28;20204;-67
2022/01/11 08:11:33;;;;;;;48.50;19.03;;;;;;;;;;5044679;28;20201;-67
2022/01/11 08:13:58;;;;;;;51.93;19.27;;;;;;;;;;5045006;28;20207;-67
2022/01/11 08:16:24;;;;;;;47.70;18.70;;;;;;;;;;5042482;28;20251;-66
2022/01/11 08:18:49;;;;;;;47.57;19.27;;;;;;;;;;5043440;28;20189;-67
2022/01/11 08:21:14;;;;;;;43.47;17.97;;;;;;;;;;5048321;28;20189;-67
2022/01/11 08:23:40;;;;;;;42.20;17.57;;;;;;;;;;5044804;28;20177;-68
2022/01/11 08:26:05;;;;;;;44.97;18.37;;;;;;;;;;5044483;28;20181;-67
2022/01/11 08:28:31;;;;;;;43.77;18.23;;;;;;;;;;5044235;28;20234;-67
2022/01/11 08:30:57;;;;;;;47.63;19.27;;;;;;;;;;5044442;28;20572;-67
2022/01/11 08:33:23;;;;;;;48.00;18.90;;;;;;;;;;5048505;28;20216;-67
2022/01/11 08:35:48;;;;;;;44.87;18.40;;;;;;;;;;5044951;28;20185;-68
2022/01/11 08:38:14;;;;;;;45.50;19.47;;;;;;;;;;5045985;28;20239;-67
2022/01/11 08:40:39;;;;;;;46.93;18.67;;;;;;;;;;5047478;28;20174;-67
2022/01/11 08:43:05;;;;;;;48.63;19.90;;;;;;;;;;5046539;28;20185;-67
2022/01/11 08:45:32;;;;;;;48.23;19.70;;;;;;;;;;5042462;28;20181;-67
2022/01/11 08:47:58;;;;;;;49.23;20.07;;;;;;;;;;5045212;28;20192;-68
2022/01/11 08:50:24;;;;;;;48.90;20.33;;;;;;;;;;5046726;28;20190;-68
2022/01/11 08:52:50;;;;;;;55.43;20.83;;;;;;;;;;5046295;28;20481;-67
2022/01/11 08:55:16;;;;;;;57.33;20.00;;;;;;;;;;5045398;28;20209;-68
2022/01/11 08:57:41;;;;;;;49.73;19.00;;;;;;;;;;5043814;28;20185;-68
2022/01/11 09:00:16;;;;;;;51.87;19.03;;;;;;;;;;5046326;28;20221;-68
2022/01/11 09:02:41;;;;;;;49.57;19.07;;;;;;;;;;5047569;28;20181;-68
2022/01/11 09:05:07;;;;;;;45.93;18.97;;;;;;;;;;5045936;28;20181;-68
2022/01/11 09:07:32;;;;;;;49.10;18.83;;;;;;;;;;5043176;28;20174;-67
2022/01/11 09:09:58;;;;;;;46.53;17.97;;;;;;;;;;5044648;28;20191;-67
2022/01/11 09:12:23;;;;;;;44.93;17.67;;;;;;;;;;5047027;28;20302;-67
2022/01/11 09:14:48;;;;;;;46.60;18.57;;;;;;;;;;5045953;28;20317;-68
2022/01/11 09:17:14;;;;;;;50.63;19.80;;;;;;;;;;5043833;28;20181;-67
2022/01/11 09:19:39;;;;;;;48.90;19.10;;;;;;;;;;5045309;28;20197;-67
2022/01/11 09:22:06;;;;;;;47.97;17.80;;;;;;;;;;5046501;28;20184;-67
2022/01/11 09:24:31;;;;;;;46.60;19.20;;;;;;;;;;5046100;28;20608;-67
2022/01/11 09:26:58;;;;;;;41.23;17.37;;;;;;;;;;5045067;28;20283;-67
2022/01/11 09:29:25;;;;;;;52.17;18.57;;;;;;;;;;5044244;28;20182;-68
2022/01/11 09:31:50;;;;;;;44.53;18.13;;;;;;;;;;5042556;28;20529;-68
2022/01/11 09:34:16;;;;;;;47.03;18.83;;;;;;;;;;5045942;28;20217;-68
2022/01/11 09:36:41;;;;;;;50.63;19.60;;;;;;;;;;5044164;28;20178;-68
2022/01/11 09:39:07;;;;;;;50.83;20.60;;;;;;;;;;5044899;28;20188;-68
2022/01/11 09:41:34;;;;;;;43.27;18.20;;;;;;;;;;5044728;28;20691;-67
2022/01/11 09:43:59;;;;;;;52.23;21.13;;;;;;;;;;5045614;28;21211;-69
2022/01/11 09:46:25;;;;;;;47.30;19.33;;;;;;;;;;5045542;28;20196;-68
2022/01/11 09:48:50;;;;;;;46.43;18.07;;;;;;;;;;5042884;28;20213;-68
2022/01/11 09:51:16;;;;;;;53.30;20.77;;;;;;;;;;5043528;28;20637;-68
2022/01/11 09:53:41;;;;;;;49.17;19.03;;;;;;;;;;5046595;28;20700;-68
2022/01/11 09:56:08;;;;;;;47.37;18.67;;;;;;;;;;5041774;28;20220;-68
2022/01/11 09:58:35;;;;;;;53.23;21.40;;;;;;;;;;5047235;28;20194;-68
2022/01/11 10:01:01;;;;;;;49.43;19.93;;;;;;;;;;5047468;28;20213;-68
2022/01/11 10:03:27;;;;;;;50.30;19.80;;;;;;;;;;5041798;28;20202;-68
2022/01/11 10:05:52;;;;;;;45.87;19.47;;;;;;;;;;5037246;28;20189;-68
2022/01/11 10:08:27;;;;;;;50.47;19.30;;;;;;;;;;5040341;28;20186;-67
2022/01/11 10:10:56;;;;;;;50.70;20.43;;;;;;;;;;5045867;28;20188;-67
2022/01/11 10:13:29;;;;;;;50.07;18.93;;;;;;;;;;5042309;28;20601;-67
2022/01/11 10:15:55;;;;;;;50.77;20.03;;;;;;;;;;5045644;28;20265;-68
2022/01/11 10:18:37;;;;;;;46.63;19.63;;;;;;;;;;5035193;28;20263;-67
2022/01/11 10:21:39;;;;;;;51.10;19.93;;;;;;;;;;5042686;28;20193;-66
2022/01/11 10:24:32;;;;;;;46.53;19.77;;;;;;;;;;5045349;28;20263;-68
2022/01/11 10:26:59;;;;;;;53.23;20.57;;;;;;;;;;5043928;28;20645;-68
2022/01/11 10:29:40;;;;;;;44.93;18.93;;;;;;;;;;5047318;28;20521;-67
2022/01/11 10:32:15;;;;;;;50.73;18.77;;;;;;;;;;5042850;28;20186;-68
2022/01/11 10:34:41;;;;;;;44.80;19.67;;;;;;;;;;5044360;28;20230;-68
2022/01/11 10:37:07;;;;;;;48.13;20.57;;;;;;;;;;5042693;28;20181;-68
2022/01/11 10:39:36;;;;;;;45.17;19.20;;;;;;;;;;5043562;28;20565;-68
2022/01/11 10:42:03;;;;;;;47.30;20.27;;;;;;;;;;5044558;28;20215;-68
2022/01/11 10:44:52;;;;;;;47.67;19.30;;;;;;;;;;5043242;28;20724;-68
2022/01/11 10:47:34;;;;;;;47.80;19.13;;;;;;;;;;5044029;28;20329;-68
2022/01/11 10:50:14;;;;;;;46.97;19.73;;;;;;;;;;5042602;28;20200;-68
2022/01/11 10:52:42;;;;;;;43.33;19.07;;;;;;;;;;5046314;28;20189;-68
2022/01/11 10:55:13;;;;;;;48.40;20.10;;;;;;;;;;5042241;28;20201;-68
2022/01/11 10:57:39;;;;;;;48.30;20.03;;;;;;;;;;5040919;28;20186;-68
2022/01/11 11:00:09;;;;;;;44.53;19.73;;;;;;;;;;5047483;28;20217;-68
2022/01/11 11:02:35;;;;;;;52.13;20.13;;;;;;;;;;5042944;28;20185;-68
2022/01/11 11:05:14;;;;;;;44.73;19.70;;;;;;;;;;5043578;28;20268;-68
2022/01/11 11:07:40;;;;;;;46.00;19.53;;;;;;;;;;5039774;28;20268;-68
2022/01/11 11:10:06;;;;;;;51.63;20.87;;;;;;;;;;5045461;28;20549;-68
2022/01/11 11:12:31;;;;;;;53.97;20.80;;;;;;;;;;5043537;28;20268;-68
2022/01/11 11:14:59;;;;;;;47.57;19.20;;;;;;;;;;5043788;28;20217;-68
2022/01/11 11:17:28;;;;;;;56.33;22.20;;;;;;;;;;5041857;28;20648;-68
2022/01/11 11:19:55;;;;;;;48.77;19.53;;;;;;;;;;5043860;28;20186;-68
2022/01/11 11:22:21;;;;;;;51.30;20.97;;;;;;;;;;5040149;28;20212;-69
2022/01/11 11:24:46;;;;;;;54.73;21.03;;;;;;;;;;5043202;28;20223;-68
2022/01/11 11:27:12;;;;;;;54.10;21.33;;;;;;;;;;5043293;28;20220;-68
2022/01/11 11:29:38;;;;;;;56.43;20.97;;;;;;;;;;5043251;28;20204;-68
2022/01/11 11:32:05;;;;;;;55.60;21.43;;;;;;;;;;5032571;28;20284;-68
2022/01/11 11:34:30;;;;;;;55.47;20.47;;;;;;;;;;5045809;28;20205;-69
2022/01/11 11:36:59;;;;;;;56.47;21.30;;;;;;;;;;5044008;28;20482;-68
2022/01/11 11:39:25;;;;;;;53.13;20.77;;;;;;;;;;5040487;28;20590;-68
2022/01/11 11:41:54;;;;;;;53.60;20.90;;;;;;;;;;5044374;28;20227;-67
2022/01/11 11:44:43;;;;;;;56.47;22.80;;;;;;;;;;5041812;28;20284;-68
2022/01/11 11:47:08;;;;;;;56.77;20.93;;;;;;;;;;5040985;28;20192;-67
2022/01/11 11:49:52;;;;;;;56.80;22.10;;;;;;;;;;5042490;28;20193;-68
2022/01/11 11:52:39;;;;;;;62.57;22.23;;;;;;;;;;5037449;28;20185;-69
2022/01/11 11:55:40;;;;;;;59.70;22.60;;;;;;;;;;5040448;28;20891;-69
2022/01/11 11:58:10;;;;;;;57.13;22.50;;;;;;;;;;4971220;28;20223;-68
2022/01/11 12:00:42;;;;;;;58.80;20.83;;;;;;;;;;5027637;28;20248;-69
2022/01/11 12:03:16;;;;;;;61.83;21.77;;;;;;;;;;5039074;28;20177;-68
2022/01/11 12:05:46;;;;;;;60.70;20.93;;;;;;;;;;5045517;28;20521;-69
2022/01/11 12:08:33;;;;;;;59.93;22.97;;;;;;;;;;5043045;28;20264;-69
2022/01/11 12:11:05;;;;;;;62.83;22.90;;;;;;;;;;5041769;28;20203;-69
2022/01/11 12:13:49;;;;;;;60.20;21.17;;;;;;;;;;5041258;28;20193;-68
2022/01/11 12:16:26;;;;;;;59.13;22.33;;;;;;;;;;5039340;28;20190;-69
2022/01/11 12:18:54;;;;;;;65.30;23.27;;;;;;;;;;5041256;28;20237;-69
2022/01/11 12:21:21;;;;;;;70.97;24.63;;;;;;;;;;5040036;28;21089;-69
2022/01/11 12:23:49;;;;;;;66.83;23.00;;;;;;;;;;5042058;28;20221;-69
2022/01/11 12:26:19;;;;;;;59.73;22.43;;;;;;;;;;5040133;28;20637;-69
2022/01/11 12:28:45;;;;;;;59.80;22.37;;;;;;;;;;5045903;28;20633;-70
2022/01/11 12:31:25;;;;;;;71.07;26.27;;;;;;;;;;5040607;28;20236;-68
2022/01/11 12:33:50;;;;;;;54.40;22.47;;;;;;;;;;5041787;28;20645;-69
2022/01/11 12:36:15;;;;;;;66.73;24.70;;;;;;;;;;5040965;28;20196;-68
2022/01/11 12:38:59;;;;;;;66.10;23.97;;;;;;;;;;5040297;28;20217;-68
2022/01/11 12:41:28;;;;;;;63.07;23.60;;;;;;;;;;5043534;28;20716;-69
2022/01/11 12:44:18;;;;;;;70.40;24.20;;;;;;;;;;5044955;28;20259;-68
2022/01/11 12:46:58;;;;;;;69.57;25.37;;;;;;;;;;5042617;28;20191;-68
2022/01/11 12:49:25;;;;;;;74.37;26.00;;;;;;;;;;5043980;28;20197;-68
2022/01/11 12:51:56;;;;;;;66.70;25.10;;;;;;;;;;5045161;28;20213;-69
2022/01/11 12:54:32;;;;;;;71.77;24.20;;;;;;;;;;5038536;28;20318;-68
2022/01/11 12:57:19;;;;;;;65.87;23.13;;;;;;;;;;5039202;28;20189;-68
2022/01/11 12:59:48;;;;;;;66.13;23.47;;;;;;;;;;5042947;28;20208;-68
2022/01/11 13:02:19;;;;;;;70.63;25.53;;;;;;;;;;5043741;28;20268;-68
2022/01/11 13:04:46;;;;;;;71.33;24.03;;;;;;;;;;5045403;28;20178;-68
2022/01/11 13:07:34;;;;;;;68.20;24.57;;;;;;;;;;5041871;28;20311;-68
2022/01/11 13:10:21;;;;;;;66.73;23.20;;;;;;;;;;5040487;28;20439;-68
2022/01/11 13:13:03;;;;;;;72.40;24.17;;;;;;;;;;5043613;28;20184;-68
2022/01/11 13:15:37;;;;;;;64.50;23.13;;;;;;;;;;5046808;28;20202;-68
2022/01/11 13:18:08;;;;;;;66.37;24.30;;;;;;;;;;5038247;28;20185;-68
2022/01/11 13:20:38;;;;;;;65.17;23.03;;;;;;;;;;5040500;28;20182;-68
2022/01/11 13:23:25;;;;;;;64.37;22.90;;;;;;;;;;5044775;28;20876;-68
2022/01/11 13:25:53;;;;;;;65.03;24.17;;;;;;;;;;5042560;28;20166;-68
2022/01/11 13:28:32;;;;;;;62.17;23.10;;;;;;;;;;5045330;28;20189;-68
2022/01/11 13:30:59;;;;;;;67.07;23.37;;;;;;;;;;5042731;28;20221;-68
2022/01/11 13:33:33;;;;;;;64.53;23.50;;;;;;;;;;5044507;28;20185;-68
2022/01/11 13:36:17;;;;;;;60.30;22.67;;;;;;;;;;5048175;28;20291;-68
2022/01/11 13:38:56;;;;;;;66.53;24.43;;;;;;;;;;5041158;28;20326;-68
2022/01/11 13:41:29;;;;;;;64.27;24.03;;;;;;;;;;5040625;28;20535;-68
2022/01/11 13:44:01;;;;;;;60.90;21.73;;;;;;;;;;5043188;28;20538;-68
2022/01/11 13:46:28;;;;;;;60.60;22.33;;;;;;;;;;5046727;28;20197;-68
2022/01/11 13:48:55;;;;;;;61.03;20.97;;;;;;;;;;5043227;28;20196;-68
2022/01/11 13:51:30;;;;;;;56.40;20.80;;;;;;;;;;5043348;28;20201;-68
2022/01/11 13:54:03;;;;;;;63.30;21.77;;;;;;;;;;5044736;28;20208;-68
2022/01/11 13:56:31;;;;;;;58.93;22.07;;;;;;;;;;5040352;28;20189;-68
2022/01/11 13:58:58;;;;;;;54.80;20.83;;;;;;;;;;5042776;28;20775;-68
2022/01/11 14:01:25;;;;;;;53.17;20.70;;;;;;;;;;5040930;28;20230;-68
2022/01/11 14:04:03;;;;;;;59.47;20.83;;;;;;;;;;5040726;28;20181;-68
2022/01/11 14:06:39;;;;;;;54.67;20.77;;;;;;;;;;5045627;28;20181;-68
2022/01/11 14:09:10;;;;;;;54.80;20.97;;;;;;;;;;5045437;28;20246;-69
2022/01/11 14:11:39;;;;;;;54.17;20.47;;;;;;;;;;5041848;28;20185;-68
2022/01/11 14:14:06;;;;;;;54.20;20.37;;;;;;;;;;5041253;28;20221;-68
2022/01/11 14:16:41;;;;;;;52.37;20.30;;;;;;;;;;5041118;28;20268;-69
2022/01/11 14:19:09;;;;;;;45.83;19.73;;;;;;;;;;5041127;28;20636;-69
2022/01/11 14:21:54;;;;;;;53.07;19.93;;;;;;;;;;5039933;28;20177;-69
2022/01/11 14:24:21;;;;;;;49.07;20.27;;;;;;;;;;5039760;28;20208;-69